Time;durP1;ratioP1;P1;durP2;ratioP2;P2;SDS_P1;SDS_P2;PMS_P1;PMS_P2;Temp;Humidity;BMP_temperature;BMP_pressure;BME280_temperature;BME280_humidity;BME280_pressure;Samples;Min_cycle;Max_cycle;Signal;HPM_P1;HPM_P2
2022/12/29 00:00:34;;;;;;;17.80;11.80;;;;;;;-5.00;91.28;98258.07;108039;1261;69253;-63
2022/12/29 00:03:20;;;;;;;12.50;9.50;;;;;;;-5.03;90.49;98250.42;107960;1266;69730;-64
2022/12/29 00:05:55;;;;;;;16.30;10.90;;;;;;;-5.04;89.97;98251.43;108026;1265;58947;-64
2022/12/29 00:08:39;;;;;;;17.70;11.50;;;;;;;-4.99;89.23;98252.13;107992;1263;59268;-63
2022/12/29 00:11:12;;;;;;;25.80;16.30;;;;;;;-4.93;90.65;98257.59;107959;1263;70237;-64
2022/12/29 00:16:37;;;;;;;25.20;18.40;;;;;;;-4.93;88.44;98252.48;107837;1263;69989;-64
2022/12/29 00:19:06;;;;;;;30.10;21.10;;;;;;;-4.96;89.66;98249.23;107971;1266;58884;-64
2022/12/29 00:35:31;;;;;;;17.10;11.90;;;;;;;-5.22;91.71;98254.13;107960;1262;58963;-64
2022/12/29 00:46:29;;;;;;;15.70;11.50;;;;;;;-5.01;89.36;98236.48;107959;1266;58918;-64
2022/12/29 00:51:49;;;;;;;33.40;18.20;;;;;;;-5.07;91.23;98241.73;108011;1265;71154;-64
2022/12/29 00:54:19;;;;;;;18.50;14.00;;;;;;;-5.15;93.19;98245.29;108026;1265;69822;-63
2022/12/29 00:56:49;;;;;;;19.90;11.20;;;;;;;-5.19;94.18;98247.31;108014;1263;69262;-63
2022/12/29 00:59:19;;;;;;;17.20;11.10;;;;;;;-5.22;94.17;98249.36;108045;1266;58939;-66
2022/12/29 01:01:48;;;;;;;18.70;11.40;;;;;;;-5.22;94.89;98248.33;107974;1263;58874;-64
2022/12/29 01:04:19;;;;;;;13.10;9.60;;;;;;;-5.20;96.82;98247.31;108030;1264;69800;-63
2022/12/29 01:06:50;;;;;;;12.10;10.10;;;;;;;-5.18;96.00;98245.45;107998;1266;68394;-65
2022/12/29 01:12:08;;;;;;;12.30;8.50;;;;;;;-5.19;92.45;98253.59;107983;1265;58972;-63
2022/12/29 01:14:38;;;;;;;11.70;8.40;;;;;;;-5.22;92.69;98250.20;108034;1264;58848;-63
2022/12/29 01:17:07;;;;;;;12.90;9.00;;;;;;;-5.26;92.36;98247.81;108010;1265;71258;-64
2022/12/29 01:19:36;;;;;;;10.50;7.10;;;;;;;-5.29;92.33;98242.02;108061;1266;68757;-63
2022/12/29 01:22:05;;;;;;;14.80;10.40;;;;;;;-5.32;92.39;98243.02;108042;1265;69239;-63
2022/12/29 01:24:35;;;;;;;14.30;9.90;;;;;;;-5.33;93.25;98239.45;107986;1263;59352;-65
2022/12/29 01:27:05;;;;;;;13.00;9.70;;;;;;;-5.33;91.98;98237.08;108040;1266;58956;-64
2022/12/29 01:29:34;;;;;;;13.00;10.00;;;;;;;-5.30;90.86;98238.80;108015;1262;70618;-65
2022/12/29 01:32:06;;;;;;;14.70;10.30;;;;;;;-5.29;92.60;98237.27;108029;1265;69170;-65
2022/12/29 01:34:35;;;;;;;19.70;13.70;;;;;;;-5.29;93.53;98233.19;108000;1263;69085;-64
2022/12/29 01:37:04;;;;;;;29.10;16.40;;;;;;;-5.29;91.49;98231.83;108040;1266;59010;-64
2022/12/29 01:39:35;;;;;;;26.00;16.10;;;;;;;-5.26;90.36;98223.86;108047;1265;58888;-64
2022/12/29 01:42:04;;;;;;;29.30;17.10;;;;;;;-5.25;89.83;98220.45;108051;1260;71609;-64
2022/12/29 01:44:48;;;;;;;24.60;16.30;;;;;;;-5.26;91.56;98216.04;108038;1257;68228;-64
2022/12/29 01:47:43;;;;;;;19.00;12.90;;;;;;;-5.27;92.47;98210.08;108065;1262;69252;-64
2022/12/29 01:50:19;;;;;;;19.60;12.40;;;;;;;-5.29;92.53;98207.52;108026;1264;58953;-64
2022/12/29 01:53:13;;;;;;;14.90;9.80;;;;;;;-5.31;93.00;98205.83;108070;1264;58966;-64
2022/12/29 01:55:48;;;;;;;15.30;10.00;;;;;;;-5.32;94.24;98201.21;107973;1262;70997;-64
2022/12/29 01:58:21;;;;;;;10.30;9.00;;;;;;;-5.34;94.05;98197.31;108054;1265;69334;-63
2022/12/29 02:00:50;;;;;;;11.60;8.40;;;;;;;-5.34;94.35;98197.83;107968;1263;68503;-63
2022/12/29 02:03:23;;;;;;;15.60;10.70;;;;;;;-5.35;94.59;98194.09;107947;1267;58910;-64
2022/12/29 02:06:11;;;;;;;19.40;12.70;;;;;;;-5.38;94.35;98189.48;107991;1263;58909;-64
2022/12/29 02:08:41;;;;;;;19.70;12.50;;;;;;;-5.39;93.79;98188.81;107993;1260;69737;-64
2022/12/29 02:11:11;;;;;;;14.70;10.50;;;;;;;-5.40;95.04;98190.67;108009;1264;69174;-64
2022/12/29 02:13:40;;;;;;;;;;;;;;;-5.42;94.62;98188.45;107982;1260;69901;-64
2022/12/29 02:16:45;;;;;;;17.70;10.70;;;;;;;-5.45;94.36;98185.06;107977;1261;58973;-64
2022/12/29 02:19:41;;;;;;;13.80;10.10;;;;;;;-5.46;96.64;98185.21;107995;1263;58921;-64
2022/12/29 02:22:49;;;;;;;12.90;8.70;;;;;;;-5.50;95.46;98189.79;108076;1265;70634;-64
2022/12/29 02:25:48;;;;;;;12.70;8.40;;;;;;;-5.54;94.96;98188.94;108124;1260;68488;-64
2022/12/29 02:28:39;;;;;;;13.20;8.00;;;;;;;-5.56;94.17;98180.77;108028;1267;69203;-63
2022/12/29 02:31:37;;;;;;;8.60;7.00;;;;;;;-5.53;92.58;98182.15;108063;1265;58962;-64
2022/12/29 02:34:41;;;;;;;13.40;8.50;;;;;;;-5.51;91.28;98179.75;108063;1265;58923;-63
2022/12/29 02:37:20;;;;;;;18.00;11.20;;;;;;;-5.48;90.38;98172.64;108033;1264;71059;-63
2022/12/29 02:39:56;;;;;;;18.90;12.40;;;;;;;-5.47;90.52;98166.69;108031;1266;69271;-63
2022/12/29 02:42:25;;;;;;;22.50;15.10;;;;;;;-5.47;91.50;98169.75;108008;1266;68486;-64
2022/12/29 02:45:02;;;;;;;15.50;10.90;;;;;;;-5.51;91.14;98171.45;108009;1266;58979;-64
2022/12/29 02:47:57;;;;;;;13.50;10.00;;;;;;;-5.56;92.18;98171.25;108106;1266;58909;-63
2022/12/29 02:50:36;;;;;;;18.60;12.40;;;;;;;-5.60;94.09;98167.34;108039;1266;71320;-63
2022/12/29 02:53:14;;;;;;;21.10;12.70;;;;;;;-5.61;96.34;98170.38;108053;1265;68556;-64
2022/12/29 02:55:52;;;;;;;16.00;9.20;;;;;;;-5.63;96.23;98167.84;107852;1262;69282;-64
2022/12/29 02:58:23;;;;;;;13.10;9.60;;;;;;;-5.66;95.86;98172.75;107906;1262;58956;-63
2022/12/29 03:00:58;;;;;;;14.00;9.60;;;;;;;-5.68;95.54;98169.19;107798;1267;58972;-64
2022/12/29 03:03:49;;;;;;;12.40;7.60;;;;;;;-5.71;95.06;98165.09;107928;1265;71262;-64
2022/12/29 03:06:51;;;;;;;16.70;10.80;;;;;;;-5.70;96.43;98163.05;107751;1266;69283;-63
2022/12/29 03:09:41;;;;;;;16.70;10.20;;;;;;;-5.73;95.99;98157.95;107937;1262;69313;-64
2022/12/29 03:12:15;;;;;;;13.60;8.90;;;;;;;-5.77;95.92;98158.79;107799;1265;58998;-63
2022/12/29 03:18:05;;;;;;;16.60;10.80;;;;;;;-5.82;96.98;98155.21;107802;1266;70927;-63
2022/12/29 03:20:43;;;;;;;17.00;10.40;;;;;;;-5.83;97.12;98149.23;107825;1262;68238;-63
2022/12/29 03:23:16;;;;;;;15.20;9.30;;;;;;;-5.83;97.46;98146.19;107898;1266;69118;-63
2022/12/29 03:25:54;;;;;;;16.50;11.70;;;;;;;-5.84;97.31;98148.06;107745;1262;58903;-63
2022/12/29 03:28:36;;;;;;;19.20;12.70;;;;;;;-5.85;98.18;98149.92;107933;1266;58913;-63
2022/12/29 03:31:10;;;;;;;15.40;9.30;;;;;;;-5.85;98.03;98147.39;107731;1262;70834;-63
2022/12/29 03:33:44;;;;;;;13.30;8.60;;;;;;;-5.86;97.54;98146.52;107793;1266;69057;-63
2022/12/29 03:36:23;;;;;;;13.70;8.20;;;;;;;-5.88;97.53;98146.67;107805;1263;69252;-63
2022/12/29 03:39:11;;;;;;;10.90;8.70;;;;;;;-5.88;97.52;98153.48;107814;1263;58924;-63
2022/12/29 03:41:44;;;;;;;11.70;8.40;;;;;;;-5.91;96.83;98159.77;107869;1266;58849;-64
2022/12/29 03:44:14;;;;;;;12.20;7.40;;;;;;;-5.90;98.54;98161.96;107792;1266;71232;-64
2022/12/29 03:46:43;;;;;;;11.30;8.30;;;;;;;-5.91;98.54;98163.66;107776;1262;69058;-63
2022/12/29 03:49:13;;;;;;;12.50;9.10;;;;;;;-5.91;97.69;98163.84;107784;1262;69311;-63
2022/12/29 03:51:43;;;;;;;13.80;8.60;;;;;;;-5.92;96.67;98164.34;107819;1267;59023;-63
2022/12/29 03:54:14;;;;;;;12.40;7.60;;;;;;;-5.95;96.41;98164.68;107902;1263;58898;-64
2022/12/29 03:56:44;;;;;;;11.00;9.20;;;;;;;-5.99;96.29;98163.14;108017;1262;69724;-63
2022/12/29 03:59:15;;;;;;;14.70;10.30;;;;;;;-6.01;97.17;98164.98;108043;1266;68374;-63
2022/12/29 04:01:46;;;;;;;14.20;9.50;;;;;;;-6.04;97.72;98168.89;108002;1262;70342;-63
2022/12/29 04:04:15;;;;;;;16.00;11.10;;;;;;;-6.07;97.88;98167.85;108039;1266;58875;-63
2022/12/29 04:06:46;;;;;;;13.50;10.30;;;;;;;-6.10;98.27;98169.19;108044;1263;58900;-63
2022/12/29 04:09:16;;;;;;;13.00;9.30;;;;;;;-6.14;98.04;98171.38;108013;1266;70426;-63
2022/12/29 04:11:48;;;;;;;18.10;11.70;;;;;;;-6.18;98.43;98168.31;108049;1265;68703;-64
2022/12/29 04:14:20;;;;;;;17.60;12.10;;;;;;;-6.20;98.84;98168.63;107978;1262;69212;-65
2022/12/29 04:16:49;;;;;;;16.40;11.60;;;;;;;-6.21;98.99;98172.02;108039;1262;59755;-64
2022/12/29 04:19:19;;;;;;;;;;;;;;;-6.20;99.60;98171.33;107982;1263;59691;-64
2022/12/29 04:21:51;;;;;;;15.70;10.90;;;;;;;-6.21;99.85;98173.54;108055;1264;72364;-63
2022/12/29 04:24:22;;;;;;;12.60;9.90;;;;;;;-6.22;99.76;98175.08;108042;1261;69959;-63
2022/12/29 04:26:51;;;;;;;17.20;10.40;;;;;;;-6.21;99.50;98170.83;107981;1266;68377;-63
2022/12/29 04:29:34;;;;;;;16.10;10.40;;;;;;;-6.16;98.86;98170.52;108026;1262;59755;-63
2022/12/29 04:32:34;;;;;;;23.40;13.80;;;;;;;-6.06;100.00;98174.14;107958;1252;59653;-63
2022/12/29 04:35:04;;;;;;;14.60;10.00;;;;;;;-6.05;100.00;98175.33;107992;1265;71354;-63
2022/12/29 04:37:35;;;;;;;18.80;12.60;;;;;;;-6.07;99.91;98172.09;108062;1266;69170;-63
2022/12/29 04:40:05;;;;;;;10.90;8.20;;;;;;;-6.10;99.41;98170.89;108000;1266;69768;-63
2022/12/29 04:42:35;;;;;;;9.40;6.50;;;;;;;-6.13;99.00;98173.42;107967;1262;59741;-63
2022/12/29 04:45:06;;;;;;;13.60;8.70;;;;;;;-6.16;98.91;98177.13;108071;1260;59709;-63
2022/12/29 04:47:52;;;;;;;13.20;9.30;;;;;;;-6.18;99.20;98182.22;108054;1262;71877;-63
2022/12/29 04:50:31;;;;;;;11.20;8.50;;;;;;;-6.20;99.06;98184.41;108040;1264;69501;-63
2022/12/29 04:53:09;;;;;;;16.90;11.70;;;;;;;-6.24;98.61;98186.94;108020;1265;69564;-63
2022/12/29 04:55:39;;;;;;;15.60;11.10;;;;;;;-6.24;99.17;98184.90;107795;1263;59786;-63
2022/12/29 04:58:09;;;;;;;12.60;9.00;;;;;;;-6.22;99.92;98187.96;107858;1263;59712;-63
2022/12/29 05:00:38;;;;;;;12.90;9.30;;;;;;;-6.23;99.59;98186.61;107714;1262;71395;-63
2022/12/29 05:03:08;;;;;;;13.60;8.20;;;;;;;-6.24;99.12;98187.44;107840;1262;68858;-63
2022/12/29 05:05:41;;;;;;;15.70;10.30;;;;;;;-6.24;99.20;98186.24;107840;1257;67813;-64
2022/12/29 05:08:10;;;;;;;12.40;8.00;;;;;;;-6.25;98.71;98183.52;107687;1257;59779;-63
2022/12/29 05:10:45;;;;;;;12.00;9.00;;;;;;;-6.26;98.03;98182.34;107737;1267;59753;-63
2022/12/29 05:13:15;;;;;;;18.30;12.10;;;;;;;-6.27;98.49;98184.04;107695;1266;71872;-63
2022/12/29 05:15:49;;;;;;;23.20;13.90;;;;;;;-6.29;99.09;98180.11;107744;1266;68484;-65
2022/12/29 05:18:19;;;;;;;20.90;12.70;;;;;;;-6.32;98.72;98185.52;107868;1262;69377;-63
2022/12/29 05:20:49;;;;;;;20.50;13.30;;;;;;;-6.39;98.34;98183.27;107964;1266;59730;-63
2022/12/29 05:23:21;;;;;;;15.60;9.80;;;;;;;-6.44;98.41;98180.69;108444;1264;59724;-62
2022/12/29 05:26:02;;;;;;;23.30;14.70;;;;;;;-6.48;98.02;98181.18;108164;1263;71619;-63
2022/12/29 05:28:50;;;;;;;20.90;15.00;;;;;;;-6.50;98.53;98174.38;107770;1267;69813;-65
2022/12/29 05:31:20;;;;;;;;;;;;;;;-6.51;98.77;98170.98;107905;1263;70232;-63
2022/12/29 05:33:49;;;;;;;13.90;9.60;;;;;;;-6.54;98.46;98165.87;107832;1262;59763;-62
2022/12/29 05:36:19;;;;;;;17.50;11.40;;;;;;;-6.56;98.43;98169.41;107927;1265;59712;-65
2022/12/29 05:38:51;;;;;;;21.40;13.10;;;;;;;-6.59;98.13;98168.73;107723;1262;70669;-63
2022/12/29 05:41:21;;;;;;;29.50;17.00;;;;;;;-6.61;97.91;98164.80;107841;1266;69237;-64
2022/12/29 05:44:11;;;;;;;20.40;14.80;;;;;;;-6.61;97.74;98167.85;107901;1259;69634;-64
2022/12/29 05:46:46;;;;;;;14.70;11.00;;;;;;;-6.61;97.76;98169.88;107800;1262;59699;-63
2022/12/29 05:49:37;;;;;;;18.80;9.60;;;;;;;-6.61;98.05;98167.67;107635;1266;59748;-63
2022/12/29 05:52:14;;;;;;;12.40;9.00;;;;;;;-6.59;98.72;98169.23;107770;1262;72081;-64
2022/12/29 05:54:44;;;;;;;22.70;14.90;;;;;;;-6.58;98.65;98164.65;107704;1265;69360;-63
2022/12/29 05:57:17;;;;;;;20.30;13.50;;;;;;;-6.55;98.43;98167.56;107774;1266;69898;-63
2022/12/29 05:59:51;;;;;;;27.90;16.20;;;;;;;-6.55;98.30;98169.44;107771;1263;59800;-64
2022/12/29 06:02:21;;;;;;;17.60;11.70;;;;;;;-6.56;98.92;98171.77;107912;1261;59702;-63
2022/12/29 06:04:50;;;;;;;23.40;16.40;;;;;;;-6.58;98.79;98173.14;107803;1266;71393;-64
2022/12/29 06:07:20;;;;;;;21.60;15.40;;;;;;;-6.57;99.60;98178.56;107780;1265;69159;-64
2022/12/29 06:09:49;;;;;;;18.40;13.40;;;;;;;-6.58;99.44;98182.96;107649;1262;68535;-65
2022/12/29 06:12:18;;;;;;;21.40;12.20;;;;;;;-6.58;99.05;98185.00;107968;1266;59743;-63
2022/12/29 06:14:50;;;;;;;17.10;11.90;;;;;;;-6.57;98.58;98179.40;107807;1262;59730;-64
2022/12/29 06:17:19;;;;;;;35.90;24.50;;;;;;;-6.53;97.73;98177.06;107950;1263;70496;-64
2022/12/29 06:19:49;;;;;;;41.30;25.80;;;;;;;-6.47;97.81;98177.79;107776;1267;69820;-64
2022/12/29 06:22:19;;;;;;;26.10;19.10;;;;;;;-6.40;99.78;98175.13;107961;1266;69189;-63
2022/12/29 06:24:48;;;;;;;30.20;19.50;;;;;;;-6.38;99.63;98175.80;107954;1266;59712;-64
2022/12/29 06:27:17;;;;;;;31.30;18.80;;;;;;;-6.36;99.84;98173.12;107825;1265;59708;-64
2022/12/29 06:29:49;;;;;;;21.80;17.00;;;;;;;-6.33;100.00;98171.09;107978;1262;71197;-64
2022/12/29 06:32:18;;;;;;;;;;;;;;;-6.30;99.79;98169.25;107952;1262;69793;-63
2022/12/29 06:34:51;;;;;;;26.80;17.20;;;;;;;-6.26;99.51;98170.80;107957;1266;69853;-66
2022/12/29 06:37:20;;;;;;;20.70;12.90;;;;;;;-6.20;99.77;98169.31;107841;1267;59755;-63
2022/12/29 06:39:49;;;;;;;17.70;13.50;;;;;;;-6.13;100.00;98164.94;107800;1265;59737;-63
2022/12/29 06:42:17;;;;;;;22.30;16.30;;;;;;;-6.08;100.00;98166.66;107958;1261;71371;-63
2022/12/29 06:45:10;;;;;;;19.60;14.50;;;;;;;-6.00;100.00;98171.27;107927;1262;69793;-63
2022/12/29 06:47:38;;;;;;;26.60;18.50;;;;;;;-5.94;100.00;98177.25;107957;1265;68406;-64
2022/12/29 06:50:08;;;;;;;30.10;21.10;;;;;;;-5.87;100.00;98177.08;107956;1261;59733;-64
2022/12/29 06:52:37;;;;;;;164.30;73.40;;;;;;;-5.82;100.00;98175.58;107867;1262;59738;-63
2022/12/29 06:55:06;;;;;;;104.50;50.10;;;;;;;-5.71;100.00;98175.11;107979;1266;71955;-64
2022/12/29 06:57:35;;;;;;;47.70;27.60;;;;;;;-5.60;100.00;98178.38;108017;1262;69127;-64
2022/12/29 07:00:05;;;;;;;43.10;23.70;;;;;;;-5.50;100.00;98183.84;108015;1262;69889;-64
2022/12/29 07:02:34;;;;;;;29.70;18.20;;;;;;;-5.38;100.00;98180.31;108002;1264;59705;-64
2022/12/29 07:05:03;;;;;;;28.60;18.30;;;;;;;-5.23;100.00;98181.54;108021;1263;59731;-63
2022/12/29 07:07:32;;;;;;;29.00;17.40;;;;;;;-4.95;100.00;98179.20;107974;1263;72284;-62
2022/12/29 07:10:01;;;;;;;24.80;18.00;;;;;;;-4.42;100.00;98178.52;108001;1264;69753;-63
2022/12/29 07:12:30;;;;;;;26.40;18.50;;;;;;;-3.83;100.00;98172.60;108002;1259;69138;-63
2022/12/29 07:14:58;;;;;;;33.50;26.30;;;;;;;-3.17;99.94;98171.92;107986;1266;59683;-63
2022/12/29 07:17:27;;;;;;;42.90;29.20;;;;;;;-2.47;99.30;98174.15;107968;1264;59677;-63
2022/12/29 07:19:56;;;;;;;57.40;40.30;;;;;;;-1.78;98.13;98175.84;108004;1264;71995;-63
2022/12/29 07:22:24;;;;;;;66.10;46.30;;;;;;;-1.15;94.19;98177.96;108023;1261;69089;-63
2022/12/29 07:24:53;;;;;;;71.90;53.90;;;;;;;-0.64;83.56;98177.55;107986;1263;69883;-63
2022/12/29 07:27:22;;;;;;;81.60;55.00;;;;;;;-0.53;78.43;98184.90;107945;1264;59803;-64
2022/12/29 07:29:51;;;;;;;79.00;55.40;;;;;;;-0.61;75.03;98187.95;107959;1264;60096;-64
2022/12/29 07:32:20;;;;;;;81.90;57.10;;;;;;;-0.56;75.02;98188.73;108026;1265;72144;-64
2022/12/29 07:34:50;;;;;;;79.00;54.40;;;;;;;-0.26;77.94;98194.05;108036;1266;67582;-64
2022/12/29 07:37:18;;;;;;;73.10;54.10;;;;;;;-0.33;74.95;98195.89;108007;1260;68709;-64
2022/12/29 07:39:47;;;;;;;62.80;46.30;;;;;;;-0.21;74.10;98198.92;107984;1264;59836;-64
2022/12/29 07:42:16;;;;;;;48.80;36.70;;;;;;;0.04;73.83;98199.16;107977;1261;59707;-64
2022/12/29 07:44:51;;;;;;;42.00;31.20;;;;;;;0.12;74.23;98200.91;108007;1260;71972;-63
2022/12/29 07:47:30;;;;;;;20.30;16.80;;;;;;;0.24;73.34;98198.45;107991;1264;68673;-64
2022/12/29 07:49:59;;;;;;;20.90;15.80;;;;;;;-0.10;72.57;98201.12;108018;1262;69514;-64
2022/12/29 07:52:28;;;;;;;22.50;17.90;;;;;;;0.03;73.23;98202.45;107996;1266;59733;-64
2022/12/29 07:54:57;;;;;;;21.60;18.00;;;;;;;0.14;71.23;98200.17;107997;1262;59710;-64
2022/12/29 07:57:26;;;;;;;26.00;18.20;;;;;;;0.31;71.29;98203.63;107938;1256;72191;-64
2022/12/29 07:59:59;;;;;;;23.30;17.80;;;;;;;0.91;70.22;98198.11;108034;1265;69926;-64
2022/12/29 08:02:29;;;;;;;23.30;19.20;;;;;;;1.47;68.06;98198.23;107992;1265;69732;-64
2022/12/29 08:04:58;;;;;;;24.00;20.10;;;;;;;2.27;68.11;98202.20;107989;1261;60144;-64
2022/12/29 08:07:27;;;;;;;33.20;24.00;;;;;;;3.02;69.25;98189.72;107976;1262;60190;-65
2022/12/29 08:09:56;;;;;;;26.90;21.30;;;;;;;3.42;70.07;98181.27;108001;1259;70451;-65
2022/12/29 08:12:25;;;;;;;30.90;23.50;;;;;;;3.83;67.44;98176.98;108014;1264;69095;-64
2022/12/29 08:14:53;;;;;;;24.30;18.10;;;;;;;4.01;64.69;98176.21;108002;1266;69728;-64
2022/12/29 08:17:22;;;;;;;26.00;19.90;;;;;;;4.33;63.12;98175.64;108225;1265;59709;-64
2022/12/29 08:19:51;;;;;;;22.60;17.50;;;;;;;4.55;60.91;98174.81;108229;1264;59643;-64
2022/12/29 08:22:19;;;;;;;21.10;17.60;;;;;;;5.13;61.05;98168.52;108028;1262;71998;-64
2022/12/29 08:24:48;;;;;;;31.90;24.90;;;;;;;5.37;60.30;98165.48;108033;1266;69186;-64
2022/12/29 08:27:18;;;;;;;39.40;31.50;;;;;;;5.88;60.32;98170.00;107939;1255;68320;-64
2022/12/29 08:29:48;;;;;;;37.60;28.20;;;;;;;6.18;58.38;98168.58;107944;1262;59653;-63
2022/12/29 08:32:17;;;;;;;30.20;25.00;;;;;;;6.32;57.03;98167.45;107982;1262;59690;-65
2022/12/29 08:34:46;;;;;;;26.10;22.00;;;;;;;6.76;55.96;98170.36;108003;1262;71310;-65
2022/12/29 08:37:15;;;;;;;23.60;19.10;;;;;;;7.12;55.55;98167.80;107998;1262;68329;-64
2022/12/29 08:39:43;;;;;;;25.80;18.80;;;;;;;7.22;52.67;98174.26;107977;1262;68484;-64
2022/12/29 08:42:12;;;;;;;19.60;16.30;;;;;;;7.67;51.48;98176.10;108009;1266;59708;-64
2022/12/29 08:44:40;;;;;;;20.70;16.60;;;;;;;8.06;49.89;98176.58;107995;1266;59633;-64
2022/12/29 08:47:11;;;;;;;21.60;17.30;;;;;;;8.07;48.26;98182.60;108003;1260;71332;-64
2022/12/29 08:49:39;;;;;;;20.90;17.50;;;;;;;7.77;47.86;98179.21;107996;1266;69838;-64
2022/12/29 08:52:08;;;;;;;21.40;18.60;;;;;;;8.31;47.17;98181.60;107949;1261;69266;-63
2022/12/29 08:54:37;;;;;;;32.40;27.80;;;;;;;7.77;48.79;98181.67;108029;1263;59740;-63
2022/12/29 08:57:06;;;;;;;28.60;23.20;;;;;;;7.79;48.77;98176.91;108003;1266;59757;-65
2022/12/29 08:59:41;;;;;;;24.40;21.10;;;;;;;7.86;49.06;98172.39;107706;1264;422447;-63
2022/12/29 09:02:12;;;;;;;26.50;22.30;;;;;;;8.09;48.98;98169.67;108033;1262;69067;-65
2022/12/29 09:04:47;;;;;;;24.30;21.70;;;;;;;7.91;49.53;98172.48;108034;1264;70027;-65
2022/12/29 09:07:16;;;;;;;21.80;18.40;;;;;;;7.73;50.05;98167.63;107997;1262;59701;-65
2022/12/29 09:09:45;;;;;;;19.40;16.60;;;;;;;8.11;49.13;98164.36;108040;1263;59726;-63
2022/12/29 09:12:14;;;;;;;18.30;14.90;;;;;;;7.68;49.33;98161.81;108026;1262;70567;-63
2022/12/29 09:14:44;;;;;;;16.30;13.80;;;;;;;7.37;49.67;98157.61;108014;1262;69805;-64
2022/12/29 09:20:00;;;;;;;14.90;13.00;;;;;;;6.11;52.09;98159.02;108002;1265;59763;-63
2022/12/29 09:22:29;;;;;;;13.70;12.20;;;;;;;6.60;51.24;98154.95;108019;1264;59692;-64
2022/12/29 09:24:57;;;;;;;11.40;10.20;;;;;;;6.94;50.46;98148.89;108044;1266;71359;-64
2022/12/29 09:27:26;;;;;;;12.60;11.20;;;;;;;6.83;50.14;98146.98;108027;1262;69798;-64
2022/12/29 09:29:55;;;;;;;12.90;9.80;;;;;;;6.91;50.31;98141.56;108003;1266;69186;-64
2022/12/29 09:32:23;;;;;;;9.50;7.60;;;;;;;6.90;49.62;98135.73;108037;1264;59821;-64
2022/12/29 09:34:58;;;;;;;10.40;8.30;;;;;;;7.44;49.16;98130.75;108043;1262;59666;-64
2022/12/29 09:37:27;;;;;;;10.60;8.10;;;;;;;7.81;47.98;98127.33;108046;1264;71319;-64
2022/12/29 09:39:56;;;;;;;10.10;8.00;;;;;;;8.48;46.49;98117.67;107985;1266;68446;-64
2022/12/29 09:42:38;;;;;;;11.60;8.80;;;;;;;8.82;46.23;98111.47;108019;1266;69233;-64
2022/12/29 09:45:33;;;;;;;10.80;9.20;;;;;;;8.90;44.88;98112.95;108030;1263;59728;-64
2022/12/29 09:48:05;;;;;;;11.20;9.10;;;;;;;9.02;44.81;98112.78;108044;1266;59732;-65
2022/12/29 09:50:38;;;;;;;10.00;9.00;;;;;;;8.89;44.76;98108.29;108072;1262;71973;-64
2022/12/29 09:53:22;;;;;;;;;;;;;;;8.68;45.26;98109.64;107992;1264;69184;-63
2022/12/29 09:55:56;;;;;;;10.30;8.40;;;;;;;9.61;43.93;98105.63;108002;1259;69869;-64
2022/12/29 09:58:35;;;;;;;9.60;8.30;;;;;;;10.21;42.26;98105.09;107951;1266;59814;-64
2022/12/29 10:01:07;;;;;;;9.10;8.20;;;;;;;10.31;40.87;98099.97;108016;1255;59631;-64
2022/12/29 10:03:48;;;;;;;11.80;8.90;;;;;;;9.89;41.16;98094.77;108007;1262;72376;-64
2022/12/29 10:06:31;;;;;;;9.30;8.00;;;;;;;9.66;41.57;98089.20;108001;1262;69027;-64
2022/12/29 10:09:22;;;;;;;9.60;8.50;;;;;;;9.77;41.40;98086.58;108017;1259;69887;-63
2022/12/29 10:12:06;;;;;;;11.60;8.00;;;;;;;9.48;41.02;98084.25;108031;1264;59777;-64
2022/12/29 10:14:56;;;;;;;9.70;8.30;;;;;;;10.00;40.82;98083.31;107971;1266;59672;-63
2022/12/29 10:17:40;;;;;;;11.30;9.80;;;;;;;10.62;39.93;98082.88;108017;1265;71364;-64
2022/12/29 10:20:24;;;;;;;12.30;9.30;;;;;;;10.58;40.61;98087.78;108058;1266;69112;-63
2022/12/29 10:23:12;;;;;;;11.00;9.00;;;;;;;10.24;40.86;98087.85;108025;1264;68445;-63
2022/12/29 10:25:43;;;;;;;11.50;8.90;;;;;;;10.18;40.37;98090.64;108025;1266;59805;-63
2022/12/29 10:28:23;;;;;;;11.20;9.20;;;;;;;11.01;40.56;98086.33;108036;1262;59766;-64
2022/12/29 10:30:54;;;;;;;12.30;10.20;;;;;;;11.96;38.44;98086.59;107965;1264;71001;-63
2022/12/29 10:33:30;;;;;;;12.90;11.20;;;;;;;11.49;38.83;98082.05;107975;1266;69779;-64
2022/12/29 10:35:59;;;;;;;14.80;11.50;;;;;;;12.06;38.03;98081.02;108047;1262;69863;-63
2022/12/29 10:38:35;;;;;;;14.00;11.30;;;;;;;11.87;37.81;98066.23;108005;1262;59670;-64
2022/12/29 10:41:45;;;;;;;13.00;11.50;;;;;;;11.76;38.63;98056.28;108004;1264;59789;-64
2022/12/29 10:44:17;;;;;;;11.60;10.00;;;;;;;12.54;37.94;98045.75;107286;1270;71670;-64
2022/12/29 10:46:58;;;;;;;13.10;11.40;;;;;;;12.61;36.35;98043.85;107942;1264;69724;-63
2022/12/29 10:49:29;;;;;;;16.50;11.00;;;;;;;13.26;36.02;98047.73;107977;1266;69842;-63
2022/12/29 10:52:02;;;;;;;12.40;9.00;;;;;;;14.03;34.42;98043.89;108030;1264;59778;-63
2022/12/29 10:54:42;;;;;;;13.60;10.40;;;;;;;13.82;34.14;98043.20;108040;1264;60082;-64
2022/12/29 10:57:20;;;;;;;13.00;10.70;;;;;;;14.07;34.48;98041.62;108022;1262;70543;-64
2022/12/29 10:59:49;;;;;;;13.50;10.80;;;;;;;13.97;34.70;98039.02;108014;1264;69232;-64
2022/12/29 11:02:30;;;;;;;14.50;11.30;;;;;;;14.43;33.65;98034.25;108035;1266;69838;-63
2022/12/29 11:05:10;;;;;;;11.10;9.70;;;;;;;13.97;34.13;98036.44;108014;1264;59706;-65
2022/12/29 11:07:39;;;;;;;10.70;9.10;;;;;;;13.51;34.47;98036.92;108062;1261;60065;-63
2022/12/29 11:10:19;;;;;;;12.10;9.10;;;;;;;13.82;34.07;98035.45;107963;1256;72302;-65
2022/12/29 11:13:03;;;;;;;9.10;7.80;;;;;;;14.44;33.68;98026.48;108003;1266;69995;-63
2022/12/29 11:15:43;;;;;;;10.90;8.60;;;;;;;14.55;32.63;98025.13;108037;1259;69736;-65
2022/12/29 11:18:39;;;;;;;9.60;7.40;;;;;;;14.55;32.50;98028.93;108004;1260;59758;-65
2022/12/29 11:21:27;;;;;;;10.10;6.80;;;;;;;15.91;31.24;98030.46;107968;1266;59735;-65
2022/12/29 11:23:59;;;;;;;9.50;7.70;;;;;;;16.04;30.49;98029.59;107948;1265;71941;-65
2022/12/29 11:26:30;;;;;;;8.70;7.30;;;;;;;16.26;29.95;98028.90;108021;1262;68234;-64
2022/12/29 11:29:08;;;;;;;9.70;7.70;;;;;;;16.11;30.28;98029.95;108007;1266;69659;-64
2022/12/29 11:31:41;;;;;;;9.80;8.70;;;;;;;15.74;30.17;98026.44;108013;1264;60096;-64
2022/12/29 11:34:23;;;;;;;9.40;7.20;;;;;;;14.70;31.32;98018.65;107985;1264;59709;-64
2022/12/29 11:36:58;;;;;;;9.40;8.00;;;;;;;14.77;31.83;98014.52;107997;1265;72001;-65
2022/12/29 11:39:32;;;;;;;9.70;7.60;;;;;;;15.33;31.53;98012.10;108000;1266;69136;-65
2022/12/29 11:42:02;;;;;;;8.00;6.70;;;;;;;16.34;30.09;98012.01;108007;1264;70245;-64
2022/12/29 11:44:38;;;;;;;9.30;7.80;;;;;;;17.01;29.53;98011.58;108043;1259;59743;-65
2022/12/29 11:47:11;;;;;;;8.40;7.00;;;;;;;17.79;28.48;98012.73;108011;1265;59737;-65
2022/12/29 11:49:40;;;;;;;7.70;6.10;;;;;;;18.09;27.34;98006.84;108033;1264;71183;-65
2022/12/29 11:52:09;;;;;;;9.30;7.30;;;;;;;18.36;26.38;97998.45;107969;1263;70047;-64
2022/12/29 11:54:38;;;;;;;9.80;8.40;;;;;;;17.58;27.41;97995.13;107947;1266;69763;-64
2022/12/29 11:57:16;;;;;;;9.40;7.70;;;;;;;18.22;27.76;97991.14;107939;1261;59746;-65
2022/12/29 11:59:55;;;;;;;10.90;8.60;;;;;;;17.67;27.48;97993.94;107979;1267;59651;-65
2022/12/29 12:02:28;;;;;;;;;;;;;;;16.85;28.28;97988.48;107984;1264;71212;-64
2022/12/29 12:05:12;;;;;;;10.40;9.00;;;;;;;16.51;28.94;97987.00;107986;1262;68351;-64
2022/12/29 12:08:02;;;;;;;9.50;7.80;;;;;;;15.82;29.41;97993.73;108021;1266;69284;-64
2022/12/29 12:10:38;;;;;;;10.40;8.80;;;;;;;16.55;28.74;97996.33;107991;1266;59763;-65
2022/12/29 12:13:16;;;;;;;10.20;8.70;;;;;;;16.81;28.45;97997.15;107997;1266;59703;-64
2022/12/29 12:15:56;;;;;;;9.30;7.40;;;;;;;16.47;28.12;97997.36;107956;1260;70888;-65
2022/12/29 12:18:40;;;;;;;10.30;8.40;;;;;;;16.35;29.02;97993.25;107972;1263;69188;-64
2022/12/29 12:21:25;;;;;;;9.00;6.40;;;;;;;15.87;28.44;97989.61;107970;1262;69722;-64
2022/12/29 12:24:09;;;;;;;9.00;6.70;;;;;;;16.24;28.16;97985.84;108004;1261;59685;-63
2022/12/29 12:26:57;;;;;;;15.40;13.40;;;;;;;17.00;28.93;97983.55;108017;1264;59753;-63